sensor_id;sensor_type;location;lat;lon;timestamp;pressure;altitude;pressure_sealevel;temperature;humidity
49779;BME280;36217;60.232;24.776;2022-12-18T00:01:21;101868.90;;;-4.08;100.00
49779;BME280;36217;60.232;24.776;2022-12-18T00:03:48;101869.04;;;-4.06;100.00
49779;BME280;36217;60.232;24.776;2022-12-18T00:06:16;101859.12;;;-3.78;100.00
49779;BME280;36217;60.232;24.776;2022-12-18T00:08:44;101856.45;;;-3.97;100.00
49779;BME280;36217;60.232;24.776;2022-12-18T00:11:13;101858.44;;;-3.46;100.00
49779;BME280;36217;60.232;24.776;2022-12-18T00:13:41;101863.05;;;-3.91;100.00
49779;BME280;36217;60.232;24.776;2022-12-18T00:16:10;101861.51;;;-3.36;100.00
49779;BME280;36217;60.232;24.776;2022-12-18T00:18:38;101860.61;;;-3.82;100.00
49779;BME280;36217;60.232;24.776;2022-12-18T00:21:08;101856.13;;;-3.75;100.00
49779;BME280;36217;60.232;24.776;2022-12-18T00:23:37;101860.26;;;-3.49;100.00
49779;BME280;36217;60.232;24.776;2022-12-18T00:26:07;101863.65;;;-3.64;100.00
49779;BME280;36217;60.232;24.776;2022-12-18T00:28:34;101861.52;;;-3.96;100.00
49779;BME280;36217;60.232;24.776;2022-12-18T00:31:02;101854.37;;;-3.92;100.00
49779;BME280;36217;60.232;24.776;2022-12-18T00:33:30;101855.32;;;-3.64;100.00
49779;BME280;36217;60.232;24.776;2022-12-18T00:36:00;101850.62;;;-3.34;100.00
49779;BME280;36217;60.232;24.776;2022-12-18T00:38:28;101848.14;;;-3.67;100.00
49779;BME280;36217;60.232;24.776;2022-12-18T00:40:55;101851.89;;;-3.80;100.00
49779;BME280;36217;60.232;24.776;2022-12-18T00:43:22;101848.59;;;-3.34;100.00
49779;BME280;36217;60.232;24.776;2022-12-18T00:45:49;101845.88;;;-3.42;100.00
49779;BME280;36217;60.232;24.776;2022-12-18T00:48:17;101844.48;;;-3.63;100.00
49779;BME280;36217;60.232;24.776;2022-12-18T00:50:44;101846.70;;;-3.86;100.00
49779;BME280;36217;60.232;24.776;2022-12-18T00:53:11;101842.68;;;-3.37;100.00
49779;BME280;36217;60.232;24.776;2022-12-18T00:55:39;101841.50;;;-3.56;100.00
49779;BME280;36217;60.232;24.776;2022-12-18T00:58:06;101840.32;;;-3.80;100.00
49779;BME280;36217;60.232;24.776;2022-12-18T01:00:33;101836.79;;;-3.84;100.00
49779;BME280;36217;60.232;24.776;2022-12-18T01:03:00;101831.07;;;-3.68;100.00
49779;BME280;36217;60.232;24.776;2022-12-18T01:05:27;101826.80;;;-3.50;100.00
49779;BME280;36217;60.232;24.776;2022-12-18T01:07:55;101827.69;;;-3.91;100.00
49779;BME280;36217;60.232;24.776;2022-12-18T01:10:23;101832.61;;;-3.74;100.00
49779;BME280;36217;60.232;24.776;2022-12-18T01:12:51;101835.78;;;-3.56;100.00
49779;BME280;36217;60.232;24.776;2022-12-18T01:15:19;101830.17;;;-3.58;100.00
49779;BME280;36217;60.232;24.776;2022-12-18T01:17:46;101822.53;;;-3.30;100.00
49779;BME280;36217;60.232;24.776;2022-12-18T01:20:13;101822.02;;;-3.87;100.00
49779;BME280;36217;60.232;24.776;2022-12-18T01:22:40;101815.25;;;-3.29;100.00
49779;BME280;36217;60.232;24.776;2022-12-18T01:25:08;101818.25;;;-3.83;100.00
49779;BME280;36217;60.232;24.776;2022-12-18T01:27:35;101816.98;;;-3.56;100.00
49779;BME280;36217;60.232;24.776;2022-12-18T01:30:03;101810.89;;;-3.80;100.00
49779;BME280;36217;60.232;24.776;2022-12-18T01:32:31;101804.85;;;-3.61;100.00
49779;BME280;36217;60.232;24.776;2022-12-18T01:34:58;101809.55;;;-3.39;100.00
49779;BME280;36217;60.232;24.776;2022-12-18T01:37:26;101798.91;;;-3.71;100.00
49779;BME280;36217;60.232;24.776;2022-12-18T01:39:53;101806.49;;;-3.65;100.00
49779;BME280;36217;60.232;24.776;2022-12-18T01:42:20;101800.15;;;-3.05;100.00
49779;BME280;36217;60.232;24.776;2022-12-18T01:44:56;101803.02;;;-3.24;100.00
49779;BME280;36217;60.232;24.776;2022-12-18T01:47:26;101800.99;;;-3.53;100.00
49779;BME280;36217;60.232;24.776;2022-12-18T01:49:55;101802.78;;;-3.41;100.00
49779;BME280;36217;60.232;24.776;2022-12-18T01:52:24;101799.60;;;-3.72;100.00
49779;BME280;36217;60.232;24.776;2022-12-18T01:54:53;101798.89;;;-3.24;100.00
49779;BME280;36217;60.232;24.776;2022-12-18T01:57:22;101802.95;;;-3.74;100.00
49779;BME280;36217;60.232;24.776;2022-12-18T01:59:54;101802.91;;;-3.74;100.00
49779;BME280;36217;60.232;24.776;2022-12-18T02:02:23;101798.25;;;-3.56;100.00
49779;BME280;36217;60.232;24.776;2022-12-18T02:04:50;101802.64;;;-3.65;100.00
49779;BME280;36217;60.232;24.776;2022-12-18T02:07:24;101800.03;;;-3.65;100.00
49779;BME280;36217;60.232;24.776;2022-12-18T02:09:59;101797.37;;;-3.61;100.00
49779;BME280;36217;60.232;24.776;2022-12-18T02:12:31;101798.65;;;-3.59;100.00
49779;BME280;36217;60.232;24.776;2022-12-18T02:15:07;101794.41;;;-3.53;100.00
49779;BME280;36217;60.232;24.776;2022-12-18T02:17:38;101792.81;;;-3.48;100.00
49779;BME280;36217;60.232;24.776;2022-12-18T02:20:12;101795.50;;;-3.52;100.00
49779;BME280;36217;60.232;24.776;2022-12-18T02:22:46;101790.48;;;-3.55;100.00
49779;BME280;36217;60.232;24.776;2022-12-18T02:25:26;101793.25;;;-3.59;100.00
49779;BME280;36217;60.232;24.776;2022-12-18T02:28:00;101793.74;;;-3.12;100.00
49779;BME280;36217;60.232;24.776;2022-12-18T02:30:31;101790.14;;;-3.51;100.00
49779;BME280;36217;60.232;24.776;2022-12-18T02:33:04;101789.98;;;-3.53;100.00
49779;BME280;36217;60.232;24.776;2022-12-18T02:35:32;101784.58;;;-3.53;100.00
49779;BME280;36217;60.232;24.776;2022-12-18T02:38:01;101780.77;;;-3.31;100.00
49779;BME280;36217;60.232;24.776;2022-12-18T02:40:30;101782.91;;;-3.57;100.00
49779;BME280;36217;60.232;24.776;2022-12-18T02:43:03;101783.60;;;-3.46;100.00
49779;BME280;36217;60.232;24.776;2022-12-18T02:45:29;101781.44;;;-3.38;100.00
49779;BME280;36217;60.232;24.776;2022-12-18T02:47:58;101775.19;;;-2.95;100.00
49779;BME280;36217;60.232;24.776;2022-12-18T02:50:32;101773.82;;;-3.39;100.00
49779;BME280;36217;60.232;24.776;2022-12-18T02:53:08;101778.60;;;-3.34;100.00
49779;BME280;36217;60.232;24.776;2022-12-18T02:55:45;101771.70;;;-3.32;100.00
49779;BME280;36217;60.232;24.776;2022-12-18T02:58:18;101769.58;;;-3.25;100.00
49779;BME280;36217;60.232;24.776;2022-12-18T03:00:52;101767.61;;;-3.33;100.00
49779;BME280;36217;60.232;24.776;2022-12-18T03:03:25;101763.88;;;-3.40;100.00
49779;BME280;36217;60.232;24.776;2022-12-18T03:05:58;101760.99;;;-3.33;100.00
49779;BME280;36217;60.232;24.776;2022-12-18T03:08:31;101761.22;;;-3.38;100.00
49779;BME280;36217;60.232;24.776;2022-12-18T03:11:03;101759.52;;;-3.56;100.00
49779;BME280;36217;60.232;24.776;2022-12-18T03:13:34;101757.28;;;-3.19;100.00
49779;BME280;36217;60.232;24.776;2022-12-18T03:16:06;101755.48;;;-3.25;100.00
49779;BME280;36217;60.232;24.776;2022-12-18T03:18:38;101759.02;;;-3.42;100.00
49779;BME280;36217;60.232;24.776;2022-12-18T03:21:10;101758.28;;;-3.14;100.00
49779;BME280;36217;60.232;24.776;2022-12-18T03:23:42;101757.65;;;-3.27;100.00
49779;BME280;36217;60.232;24.776;2022-12-18T03:26:14;101755.59;;;-3.23;100.00
49779;BME280;36217;60.232;24.776;2022-12-18T03:28:44;101755.80;;;-3.21;100.00
49779;BME280;36217;60.232;24.776;2022-12-18T03:31:13;101756.65;;;-3.27;100.00
49779;BME280;36217;60.232;24.776;2022-12-18T03:33:44;101754.66;;;-3.23;100.00
49779;BME280;36217;60.232;24.776;2022-12-18T03:36:12;101750.04;;;-3.24;100.00
49779;BME280;36217;60.232;24.776;2022-12-18T03:38:40;101751.20;;;-3.15;100.00
49779;BME280;36217;60.232;24.776;2022-12-18T03:41:12;101746.05;;;-3.23;100.00
49779;BME280;36217;60.232;24.776;2022-12-18T03:43:49;101745.48;;;-3.25;100.00
49779;BME280;36217;60.232;24.776;2022-12-18T03:46:26;101751.59;;;-3.29;100.00
49779;BME280;36217;60.232;24.776;2022-12-18T03:48:59;101743.63;;;-3.15;100.00
49779;BME280;36217;60.232;24.776;2022-12-18T03:51:39;101743.12;;;-3.19;100.00
49779;BME280;36217;60.232;24.776;2022-12-18T03:54:10;101748.44;;;-3.30;100.00
49779;BME280;36217;60.232;24.776;2022-12-18T03:56:42;101750.37;;;-3.01;100.00
49779;BME280;36217;60.232;24.776;2022-12-18T03:59:12;101748.31;;;-3.19;100.00
49779;BME280;36217;60.232;24.776;2022-12-18T04:01:46;101743.13;;;-3.47;100.00
49779;BME280;36217;60.232;24.776;2022-12-18T04:04:15;101745.47;;;-2.89;100.00
49779;BME280;36217;60.232;24.776;2022-12-18T04:06:43;101744.73;;;-3.21;100.00
49779;BME280;36217;60.232;24.776;2022-12-18T04:09:12;101746.25;;;-2.98;100.00
49779;BME280;36217;60.232;24.776;2022-12-18T04:11:40;101742.67;;;-3.05;100.00
49779;BME280;36217;60.232;24.776;2022-12-18T04:14:07;101740.68;;;-2.92;100.00
49779;BME280;36217;60.232;24.776;2022-12-18T04:16:35;101739.10;;;-2.87;100.00
49779;BME280;36217;60.232;24.776;2022-12-18T04:19:02;101738.64;;;-2.96;100.00
49779;BME280;36217;60.232;24.776;2022-12-18T04:21:29;101734.44;;;-2.86;100.00
49779;BME280;36217;60.232;24.776;2022-12-18T04:23:57;101736.19;;;-3.12;100.00
49779;BME280;36217;60.232;24.776;2022-12-18T04:26:24;101732.54;;;-2.79;100.00
49779;BME280;36217;60.232;24.776;2022-12-18T04:28:51;101740.93;;;-2.88;100.00
49779;BME280;36217;60.232;24.776;2022-12-18T04:31:18;101739.57;;;-3.13;100.00
49779;BME280;36217;60.232;24.776;2022-12-18T04:33:45;101732.47;;;-2.80;100.00
49779;BME280;36217;60.232;24.776;2022-12-18T04:36:12;101730.34;;;-3.16;100.00
49779;BME280;36217;60.232;24.776;2022-12-18T04:38:40;101725.66;;;-2.89;100.00
49779;BME280;36217;60.232;24.776;2022-12-18T04:41:07;101727.63;;;-2.89;100.00
49779;BME280;36217;60.232;24.776;2022-12-18T04:43:34;101724.56;;;-2.97;100.00
49779;BME280;36217;60.232;24.776;2022-12-18T04:46:03;101725.06;;;-2.56;100.00
49779;BME280;36217;60.232;24.776;2022-12-18T04:48:30;101718.91;;;-3.11;100.00
49779;BME280;36217;60.232;24.776;2022-12-18T04:50:58;101718.75;;;-3.10;100.00
49779;BME280;36217;60.232;24.776;2022-12-18T04:53:25;101715.18;;;-2.84;100.00
49779;BME280;36217;60.232;24.776;2022-12-18T04:56:03;101715.99;;;-2.86;100.00
49779;BME280;36217;60.232;24.776;2022-12-18T04:58:30;101715.92;;;-2.71;100.00
49779;BME280;36217;60.232;24.776;2022-12-18T05:00:57;101718.15;;;-2.98;100.00
49779;BME280;36217;60.232;24.776;2022-12-18T05:03:25;101715.70;;;-2.56;100.00
49779;BME280;36217;60.232;24.776;2022-12-18T05:05:52;101709.10;;;-2.69;100.00
49779;BME280;36217;60.232;24.776;2022-12-18T05:08:19;101710.74;;;-2.92;100.00
49779;BME280;36217;60.232;24.776;2022-12-18T05:10:46;101708.77;;;-2.87;100.00
49779;BME280;36217;60.232;24.776;2022-12-18T05:13:14;101702.77;;;-2.76;100.00
49779;BME280;36217;60.232;24.776;2022-12-18T05:15:41;101703.98;;;-2.71;100.00
49779;BME280;36217;60.232;24.776;2022-12-18T05:18:08;101699.45;;;-2.83;100.00
49779;BME280;36217;60.232;24.776;2022-12-18T05:20:35;101698.82;;;-2.68;100.00
49779;BME280;36217;60.232;24.776;2022-12-18T05:23:03;101699.24;;;-3.08;100.00
49779;BME280;36217;60.232;24.776;2022-12-18T05:25:30;101695.43;;;-2.59;100.00
49779;BME280;36217;60.232;24.776;2022-12-18T05:27:57;101694.91;;;-2.88;100.00
49779;BME280;36217;60.232;24.776;2022-12-18T05:30:25;101689.55;;;-2.94;100.00
49779;BME280;36217;60.232;24.776;2022-12-18T05:32:52;101691.49;;;-2.76;100.00
49779;BME280;36217;60.232;24.776;2022-12-18T05:35:19;101696.04;;;-2.81;100.00
49779;BME280;36217;60.232;24.776;2022-12-18T05:37:46;101695.25;;;-2.77;100.00
49779;BME280;36217;60.232;24.776;2022-12-18T05:40:13;101696.75;;;-2.89;100.00
49779;BME280;36217;60.232;24.776;2022-12-18T05:42:40;101702.45;;;-2.88;100.00
49779;BME280;36217;60.232;24.776;2022-12-18T05:45:08;101698.68;;;-2.84;100.00
49779;BME280;36217;60.232;24.776;2022-12-18T05:47:35;101704.09;;;-2.72;100.00
49779;BME280;36217;60.232;24.776;2022-12-18T05:50:04;101706.30;;;-3.00;100.00
49779;BME280;36217;60.232;24.776;2022-12-18T05:52:31;101708.51;;;-2.52;100.00
49779;BME280;36217;60.232;24.776;2022-12-18T05:54:58;101708.70;;;-2.52;100.00
49779;BME280;36217;60.232;24.776;2022-12-18T05:57:26;101708.55;;;-2.45;100.00
49779;BME280;36217;60.232;24.776;2022-12-18T05:59:52;101708.71;;;-2.88;100.00
49779;BME280;36217;60.232;24.776;2022-12-18T06:02:20;101703.85;;;-2.76;100.00
49779;BME280;36217;60.232;24.776;2022-12-18T06:04:47;101703.29;;;-2.76;100.00
49779;BME280;36217;60.232;24.776;2022-12-18T06:07:14;101704.21;;;-2.82;100.00
49779;BME280;36217;60.232;24.776;2022-12-18T06:09:41;101706.90;;;-2.79;100.00
49779;BME280;36217;60.232;24.776;2022-12-18T06:12:09;101709.89;;;-2.59;100.00
49779;BME280;36217;60.232;24.776;2022-12-18T06:14:36;101711.86;;;-2.36;100.00
49779;BME280;36217;60.232;24.776;2022-12-18T06:17:03;101714.55;;;-2.55;100.00
49779;BME280;36217;60.232;24.776;2022-12-18T06:19:30;101712.26;;;-2.48;100.00
49779;BME280;36217;60.232;24.776;2022-12-18T06:21:57;101714.59;;;-2.77;100.00
49779;BME280;36217;60.232;24.776;2022-12-18T06:24:24;101711.80;;;-2.66;100.00
49779;BME280;36217;60.232;24.776;2022-12-18T06:26:52;101715.33;;;-2.54;100.00
49779;BME280;36217;60.232;24.776;2022-12-18T06:29:19;101717.70;;;-2.58;100.00
49779;BME280;36217;60.232;24.776;2022-12-18T06:31:46;101719.40;;;-2.48;100.00
49779;BME280;36217;60.232;24.776;2022-12-18T06:34:14;101718.48;;;-2.22;100.00
49779;BME280;36217;60.232;24.776;2022-12-18T06:36:41;101717.71;;;-2.23;100.00
49779;BME280;36217;60.232;24.776;2022-12-18T06:39:08;101716.59;;;-2.61;100.00
49779;BME280;36217;60.232;24.776;2022-12-18T06:41:35;101717.75;;;-2.30;100.00
49779;BME280;36217;60.232;24.776;2022-12-18T06:44:03;101713.83;;;-2.40;100.00
49779;BME280;36217;60.232;24.776;2022-12-18T06:46:30;101713.76;;;-2.15;100.00
49779;BME280;36217;60.232;24.776;2022-12-18T06:48:57;101717.46;;;-2.39;100.00
49779;BME280;36217;60.232;24.776;2022-12-18T06:51:25;101716.19;;;-2.35;100.00
49779;BME280;36217;60.232;24.776;2022-12-18T06:53:53;101716.59;;;-2.29;100.00
49779;BME280;36217;60.232;24.776;2022-12-18T06:56:20;101717.86;;;-2.39;100.00
49779;BME280;36217;60.232;24.776;2022-12-18T06:58:50;101717.31;;;-2.42;100.00
49779;BME280;36217;60.232;24.776;2022-12-18T07:01:17;101717.75;;;-2.53;100.00
49779;BME280;36217;60.232;24.776;2022-12-18T07:03:44;101717.45;;;-2.33;100.00
49779;BME280;36217;60.232;24.776;2022-12-18T07:06:14;101715.93;;;-2.32;100.00
49779;BME280;36217;60.232;24.776;2022-12-18T07:08:41;101720.12;;;-2.39;100.00
49779;BME280;36217;60.232;24.776;2022-12-18T07:11:08;101720.23;;;-2.49;100.00
49779;BME280;36217;60.232;24.776;2022-12-18T07:13:36;101718.44;;;-2.50;100.00
49779;BME280;36217;60.232;24.776;2022-12-18T07:16:05;101712.64;;;-2.39;100.00
49779;BME280;36217;60.232;24.776;2022-12-18T07:18:33;101709.69;;;-2.23;100.00
49779;BME280;36217;60.232;24.776;2022-12-18T07:21:03;101711.84;;;-2.52;100.00
49779;BME280;36217;60.232;24.776;2022-12-18T07:23:30;101712.01;;;-1.90;100.00
49779;BME280;36217;60.232;24.776;2022-12-18T07:26:01;101714.07;;;-2.39;100.00
49779;BME280;36217;60.232;24.776;2022-12-18T07:28:28;101713.62;;;-2.26;100.00
49779;BME280;36217;60.232;24.776;2022-12-18T07:30:55;101717.44;;;-2.24;100.00
49779;BME280;36217;60.232;24.776;2022-12-18T07:33:22;101714.62;;;-2.43;100.00
49779;BME280;36217;60.232;24.776;2022-12-18T07:35:49;101714.12;;;-1.99;100.00
49779;BME280;36217;60.232;24.776;2022-12-18T07:38:17;101714.75;;;-2.21;100.00
49779;BME280;36217;60.232;24.776;2022-12-18T07:40:44;101715.78;;;-2.41;100.00
49779;BME280;36217;60.232;24.776;2022-12-18T07:43:11;101712.79;;;-2.11;100.00
49779;BME280;36217;60.232;24.776;2022-12-18T07:45:39;101721.13;;;-2.12;100.00
49779;BME280;36217;60.232;24.776;2022-12-18T07:48:06;101719.38;;;-2.36;100.00
49779;BME280;36217;60.232;24.776;2022-12-18T07:50:33;101718.69;;;-1.99;100.00
49779;BME280;36217;60.232;24.776;2022-12-18T07:53:00;101719.14;;;-2.21;100.00
49779;BME280;36217;60.232;24.776;2022-12-18T07:55:27;101724.87;;;-2.21;100.00
49779;BME280;36217;60.232;24.776;2022-12-18T07:57:55;101724.49;;;-2.21;100.00
49779;BME280;36217;60.232;24.776;2022-12-18T08:00:22;101722.63;;;-2.29;100.00
49779;BME280;36217;60.232;24.776;2022-12-18T08:02:49;101718.08;;;-2.06;100.00
49779;BME280;36217;60.232;24.776;2022-12-18T08:05:17;101721.55;;;-1.84;100.00
49779;BME280;36217;60.232;24.776;2022-12-18T08:07:44;101722.34;;;-2.17;100.00
49779;BME280;36217;60.232;24.776;2022-12-18T08:10:11;101722.47;;;-2.16;100.00
49779;BME280;36217;60.232;24.776;2022-12-18T08:12:38;101721.33;;;-2.24;100.00
49779;BME280;36217;60.232;24.776;2022-12-18T08:15:06;101721.38;;;-2.09;100.00
49779;BME280;36217;60.232;24.776;2022-12-18T08:17:33;101721.27;;;-2.53;100.00
49779;BME280;36217;60.232;24.776;2022-12-18T08:20:00;101720.52;;;-2.21;100.00
49779;BME280;36217;60.232;24.776;2022-12-18T08:22:28;101722.08;;;-2.23;100.00
49779;BME280;36217;60.232;24.776;2022-12-18T08:24:54;101719.61;;;-2.04;100.00
49779;BME280;36217;60.232;24.776;2022-12-18T08:27:21;101722.63;;;-2.05;100.00
49779;BME280;36217;60.232;24.776;2022-12-18T08:29:48;101723.92;;;-2.06;100.00
49779;BME280;36217;60.232;24.776;2022-12-18T08:32:16;101723.27;;;-2.26;100.00
49779;BME280;36217;60.232;24.776;2022-12-18T08:34:43;101725.70;;;-2.12;100.00
49779;BME280;36217;60.232;24.776;2022-12-18T08:37:10;101719.41;;;-2.06;100.00
49779;BME280;36217;60.232;24.776;2022-12-18T08:39:38;101718.81;;;-2.11;100.00
49779;BME280;36217;60.232;24.776;2022-12-18T08:42:05;101716.27;;;-2.08;100.00
49779;BME280;36217;60.232;24.776;2022-12-18T08:44:32;101715.60;;;-2.11;100.00
49779;BME280;36217;60.232;24.776;2022-12-18T08:46:59;101712.61;;;-2.58;100.00
49779;BME280;36217;60.232;24.776;2022-12-18T08:49:27;101706.93;;;-1.92;100.00
49779;BME280;36217;60.232;24.776;2022-12-18T08:51:54;101704.94;;;-1.81;100.00
49779;BME280;36217;60.232;24.776;2022-12-18T08:54:21;101707.58;;;-2.08;100.00
49779;BME280;36217;60.232;24.776;2022-12-18T08:56:49;101702.62;;;-2.25;100.00
49779;BME280;36217;60.232;24.776;2022-12-18T08:59:16;101704.05;;;-1.90;100.00
49779;BME280;36217;60.232;24.776;2022-12-18T09:01:44;101699.38;;;-2.22;100.00
49779;BME280;36217;60.232;24.776;2022-12-18T09:04:12;101691.48;;;-1.86;100.00
49779;BME280;36217;60.232;24.776;2022-12-18T09:06:39;101688.92;;;-1.85;100.00
49779;BME280;36217;60.232;24.776;2022-12-18T09:09:07;101687.98;;;-2.24;100.00
49779;BME280;36217;60.232;24.776;2022-12-18T09:11:33;101690.65;;;-2.21;100.00
49779;BME280;36217;60.232;24.776;2022-12-18T09:14:01;101693.14;;;-1.63;100.00
49779;BME280;36217;60.232;24.776;2022-12-18T09:16:29;101699.99;;;-1.93;100.00
49779;BME280;36217;60.232;24.776;2022-12-18T09:18:57;101697.15;;;-1.67;100.00
49779;BME280;36217;60.232;24.776;2022-12-18T09:21:27;101691.74;;;-1.60;100.00
49779;BME280;36217;60.232;24.776;2022-12-18T09:23:55;101690.87;;;-2.05;100.00
49779;BME280;36217;60.232;24.776;2022-12-18T09:26:23;101684.70;;;-1.57;100.00
49779;BME280;36217;60.232;24.776;2022-12-18T09:28:51;101683.64;;;-2.05;100.00
49779;BME280;36217;60.232;24.776;2022-12-18T09:31:20;101681.89;;;-1.86;100.00
49779;BME280;36217;60.232;24.776;2022-12-18T09:33:48;101680.60;;;-1.60;100.00
49779;BME280;36217;60.232;24.776;2022-12-18T09:36:17;101677.33;;;-1.89;100.00
49779;BME280;36217;60.232;24.776;2022-12-18T09:38:44;101673.55;;;-1.87;100.00
49779;BME280;36217;60.232;24.776;2022-12-18T09:41:25;101667.81;;;-1.93;100.00
49779;BME280;36217;60.232;24.776;2022-12-18T09:43:58;101667.28;;;-1.68;100.00
49779;BME280;36217;60.232;24.776;2022-12-18T09:46:29;101658.73;;;-1.60;100.00
49779;BME280;36217;60.232;24.776;2022-12-18T09:48:59;101658.88;;;-1.55;100.00
49779;BME280;36217;60.232;24.776;2022-12-18T09:51:32;101659.48;;;-1.52;100.00
49779;BME280;36217;60.232;24.776;2022-12-18T09:54:04;101656.76;;;-1.95;100.00
49779;BME280;36217;60.232;24.776;2022-12-18T09:56:36;101660.61;;;-1.63;100.00
49779;BME280;36217;60.232;24.776;2022-12-18T09:59:18;101659.85;;;-1.59;100.00
49779;BME280;36217;60.232;24.776;2022-12-18T10:01:47;101659.95;;;-1.50;100.00
49779;BME280;36217;60.232;24.776;2022-12-18T10:04:15;101654.64;;;-1.81;100.00
49779;BME280;36217;60.232;24.776;2022-12-18T10:06:47;101659.79;;;-1.56;100.00
49779;BME280;36217;60.232;24.776;2022-12-18T10:09:25;101656.97;;;-1.80;100.00
49779;BME280;36217;60.232;24.776;2022-12-18T10:12:02;101660.22;;;-1.23;100.00
49779;BME280;36217;60.232;24.776;2022-12-18T10:14:36;101655.58;;;-1.80;100.00
49779;BME280;36217;60.232;24.776;2022-12-18T10:17:14;101655.14;;;-1.55;100.00
49779;BME280;36217;60.232;24.776;2022-12-18T10:19:48;101648.89;;;-1.78;100.00
49779;BME280;36217;60.232;24.776;2022-12-18T10:22:23;101641.52;;;-1.69;100.00
49779;BME280;36217;60.232;24.776;2022-12-18T10:24:56;101637.16;;;-1.58;100.00
49779;BME280;36217;60.232;24.776;2022-12-18T10:27:27;101643.61;;;-1.59;100.00
49779;BME280;36217;60.232;24.776;2022-12-18T10:29:55;101644.54;;;-1.63;100.00
49779;BME280;36217;60.232;24.776;2022-12-18T10:32:24;101646.50;;;-1.82;100.00
49779;BME280;36217;60.232;24.776;2022-12-18T10:34:54;101650.37;;;-1.57;100.00
49779;BME280;36217;60.232;24.776;2022-12-18T10:37:24;101644.77;;;-1.30;100.00
49779;BME280;36217;60.232;24.776;2022-12-18T10:40:09;101649.99;;;-1.67;100.00
49779;BME280;36217;60.232;24.776;2022-12-18T10:42:36;101647.33;;;-1.98;100.00
49779;BME280;36217;60.232;24.776;2022-12-18T10:45:08;101643.98;;;-1.37;100.00
49779;BME280;36217;60.232;24.776;2022-12-18T10:47:35;101637.23;;;-1.34;100.00
49779;BME280;36217;60.232;24.776;2022-12-18T10:50:03;101638.06;;;-1.83;100.00
49779;BME280;36217;60.232;24.776;2022-12-18T10:52:30;101637.17;;;-1.29;100.00
49779;BME280;36217;60.232;24.776;2022-12-18T10:54:59;101635.17;;;-1.16;100.00
49779;BME280;36217;60.232;24.776;2022-12-18T10:57:34;101635.09;;;-1.56;100.00
49779;BME280;36217;60.232;24.776;2022-12-18T11:00:22;101627.43;;;-1.95;100.00
49779;BME280;36217;60.232;24.776;2022-12-18T11:02:50;101624.91;;;-1.38;100.00
49779;BME280;36217;60.232;24.776;2022-12-18T11:05:25;101622.19;;;-1.65;100.00
49779;BME280;36217;60.232;24.776;2022-12-18T11:07:52;101617.02;;;-1.89;100.00
49779;BME280;36217;60.232;24.776;2022-12-18T11:10:21;101612.91;;;-1.57;100.00
49779;BME280;36217;60.232;24.776;2022-12-18T11:12:48;101615.21;;;-1.78;100.00
49779;BME280;36217;60.232;24.776;2022-12-18T11:15:16;101616.71;;;-1.71;100.00
49779;BME280;36217;60.232;24.776;2022-12-18T11:17:47;101611.25;;;-1.89;100.00
49779;BME280;36217;60.232;24.776;2022-12-18T11:20:21;101600.84;;;-1.95;100.00
49779;BME280;36217;60.232;24.776;2022-12-18T11:22:56;101601.00;;;-1.94;100.00
49779;BME280;36217;60.232;24.776;2022-12-18T11:25:24;101599.05;;;-1.76;100.00
49779;BME280;36217;60.232;24.776;2022-12-18T11:27:52;101596.57;;;-1.96;100.00
49779;BME280;36217;60.232;24.776;2022-12-18T11:30:23;101593.18;;;-1.90;100.00
49779;BME280;36217;60.232;24.776;2022-12-18T11:32:54;101592.32;;;-1.78;100.00
49779;BME280;36217;60.232;24.776;2022-12-18T11:35:30;101586.94;;;-1.56;100.00
49779;BME280;36217;60.232;24.776;2022-12-18T11:38:04;101586.27;;;-1.81;100.00
49779;BME280;36217;60.232;24.776;2022-12-18T11:40:35;101579.93;;;-1.89;100.00
49779;BME280;36217;60.232;24.776;2022-12-18T11:43:08;101576.45;;;-1.36;100.00
49779;BME280;36217;60.232;24.776;2022-12-18T11:45:42;101573.43;;;-1.69;100.00
49779;BME280;36217;60.232;24.776;2022-12-18T11:48:14;101569.26;;;-1.35;100.00
49779;BME280;36217;60.232;24.776;2022-12-18T11:50:47;101567.32;;;-1.62;100.00
49779;BME280;36217;60.232;24.776;2022-12-18T11:53:16;101559.42;;;-1.28;100.00
49779;BME280;36217;60.232;24.776;2022-12-18T11:55:52;101554.29;;;-1.45;100.00
49779;BME280;36217;60.232;24.776;2022-12-18T11:58:38;101553.73;;;-1.56;100.00
49779;BME280;36217;60.232;24.776;2022-12-18T12:01:15;101554.11;;;-1.93;100.00
49779;BME280;36217;60.232;24.776;2022-12-18T12:03:56;101547.90;;;-1.94;100.00
49779;BME280;36217;60.232;24.776;2022-12-18T12:06:34;101544.64;;;-1.94;100.00
49779;BME280;36217;60.232;24.776;2022-12-18T12:09:10;101547.06;;;-1.92;100.00
49779;BME280;36217;60.232;24.776;2022-12-18T12:11:48;101538.23;;;-1.48;100.00
49779;BME280;36217;60.232;24.776;2022-12-18T12:14:32;101529.17;;;-1.84;100.00
49779;BME280;36217;60.232;24.776;2022-12-18T12:17:05;101522.34;;;-1.88;100.00
49779;BME280;36217;60.232;24.776;2022-12-18T12:19:45;101515.39;;;-1.59;100.00
49779;BME280;36217;60.232;24.776;2022-12-18T12:22:24;101512.83;;;-1.76;100.00
49779;BME280;36217;60.232;24.776;2022-12-18T12:25:16;101509.45;;;-1.80;100.00
49779;BME280;36217;60.232;24.776;2022-12-18T12:27:51;101504.57;;;-1.64;100.00
49779;BME280;36217;60.232;24.776;2022-12-18T12:30:24;101505.50;;;-1.52;100.00
49779;BME280;36217;60.232;24.776;2022-12-18T12:33:05;101508.21;;;-1.76;100.00
49779;BME280;36217;60.232;24.776;2022-12-18T12:35:46;101503.13;;;-1.33;100.00
49779;BME280;36217;60.232;24.776;2022-12-18T12:38:17;101500.85;;;-1.77;100.00
49779;BME280;36217;60.232;24.776;2022-12-18T12:40:50;101490.87;;;-1.30;100.00
49779;BME280;36217;60.232;24.776;2022-12-18T12:43:28;101493.46;;;-1.80;100.00